Time;durP1;ratioP1;P1;durP2;ratioP2;P2;SDS_P1;SDS_P2;PMS_P1;PMS_P2;Temp;Humidity;BMP_temperature;BMP_pressure;BME280_temperature;BME280_humidity;BME280_pressure;Samples;Min_cycle;Max_cycle;Signal;HPM_P1;HPM_P2
2021/01/04 00:01:53;;;;;;;31.10;20.37;;;8.60;57.60;;;;;;5068149;28;20451;-42
2021/01/04 00:04:56;;;;;;;29.17;20.50;;;8.60;57.80;;;;;;5059618;28;20466;-41
2021/01/04 00:07:42;;;;;;;26.77;18.40;;;8.60;57.80;;;;;;5069807;28;20437;-41
2021/01/04 00:10:30;;;;;;;24.93;19.50;;;8.60;58.00;;;;;;5054175;28;20573;-42
2021/01/04 00:13:10;;;;;;;26.47;18.90;;;8.60;58.20;;;;;;5060287;28;20923;-42
2021/01/04 00:15:51;;;;;;;26.17;18.80;;;8.50;58.20;;;;;;5054169;28;20831;-41
2021/01/04 00:18:55;;;;;;;26.90;19.00;;;8.60;58.30;;;;;;5050464;28;20922;-42
2021/01/04 00:21:48;;;;;;;27.10;19.50;;;8.50;58.10;;;;;;5036384;28;20453;-42
2021/01/04 00:24:31;;;;;;;29.90;21.13;;;8.30;57.70;;;;;;5051955;28;20435;-42
2021/01/04 00:27:07;;;;;;;27.03;19.30;;;8.30;58.40;;;;;;5048678;28;20423;-42
2021/01/04 00:29:33;;;;;;;28.40;18.90;;;8.30;58.30;;;;;;5057434;28;20446;-41
2021/01/04 00:32:04;;;;;;;27.40;19.53;;;8.30;58.40;;;;;;5060803;28;20433;-42
2021/01/04 00:34:43;;;;;;;27.90;19.57;;;8.40;58.30;;;;;;5055474;28;20266;-41
2021/01/04 00:37:34;;;;;;;27.90;19.60;;;8.30;58.00;;;;;;5052339;28;20427;-41
2021/01/04 00:40:17;;;;;;;35.20;19.80;;;8.20;58.30;;;;;;5051728;28;20505;-42
2021/01/04 00:42:49;;;;;;;25.80;18.70;;;8.10;58.20;;;;;;5050303;28;20438;-42
2021/01/04 00:45:28;;;;;;;26.53;17.93;;;8.10;58.60;;;;;;5062612;28;20445;-41
2021/01/04 00:47:59;;;;;;;26.47;19.23;;;8.20;58.50;;;;;;5051072;28;20437;-41
2021/01/04 00:50:34;;;;;;;28.77;20.13;;;8.20;58.30;;;;;;5055559;28;20457;-41
2021/01/04 00:53:04;;;;;;;26.50;17.77;;;8.30;58.10;;;;;;5050687;28;20441;-41
2021/01/04 00:55:49;;;;;;;29.23;20.77;;;8.30;58.00;;;;;;5057496;28;20457;-41
2021/01/04 00:58:37;;;;;;;31.37;18.77;;;8.20;58.00;;;;;;5042131;28;21095;-41
2021/01/04 01:01:26;;;;;;;25.63;18.47;;;8.10;58.10;;;;;;5051597;28;20434;-41
2021/01/04 01:04:15;;;;;;;26.17;18.67;;;8.10;58.30;;;;;;5056833;28;20822;-41
2021/01/04 01:06:55;;;;;;;30.57;19.90;;;8.10;58.20;;;;;;5065811;28;20497;-41
2021/01/04 01:09:21;;;;;;;26.70;18.90;;;8.20;58.20;;;;;;5049663;28;20513;-42
2021/01/04 01:12:04;;;;;;;28.87;19.47;;;8.20;58.00;;;;;;5062220;28;20573;-42
2021/01/04 01:15:09;;;;;;;28.87;19.33;;;8.10;58.10;;;;;;5052503;28;20231;-42
2021/01/04 01:17:47;;;;;;;29.17;20.20;;;8.10;58.20;;;;;;5050851;28;20501;-42
2021/01/04 01:20:18;;;;;;;29.50;18.80;;;8.20;58.20;;;;;;5056318;28;20515;-41
2021/01/04 01:22:44;;;;;;;29.83;20.37;;;8.20;58.30;;;;;;5043271;28;20435;-42
2021/01/04 01:25:15;;;;;;;25.93;18.93;;;8.20;58.10;;;;;;5067022;28;20832;-41
2021/01/04 01:27:43;;;;;;;32.30;21.57;;;8.20;58.00;;;;;;5050947;28;20435;-42
2021/01/04 01:30:36;;;;;;;30.23;20.20;;;8.30;58.00;;;;;;5062903;28;20449;-41
2021/01/04 01:33:08;;;;;;;26.13;18.83;;;8.30;57.90;;;;;;5058562;28;20465;-42
2021/01/04 01:36:08;;;;;;;31.30;20.50;;;8.30;57.90;;;;;;5056511;28;20570;-42
2021/01/04 01:39:07;;;;;;;29.40;19.47;;;8.30;57.90;;;;;;5049926;28;20499;-42
2021/01/04 01:41:45;;;;;;;29.70;21.60;;;8.30;57.90;;;;;;5047980;28;20550;-42
2021/01/04 01:44:37;;;;;;;26.10;19.33;;;8.30;57.90;;;;;;5056815;28;20435;-42
2021/01/04 01:47:10;;;;;;;25.30;18.27;;;8.40;57.90;;;;;;5054920;28;20458;-41
2021/01/04 01:49:40;;;;;;;29.07;19.00;;;8.40;57.90;;;;;;5051296;28;20437;-42
2021/01/04 01:52:45;;;;;;;29.87;19.80;;;8.40;57.90;;;;;;5051078;28;20442;-41
2021/01/04 01:55:33;;;;;;;29.80;19.30;;;8.20;57.60;;;;;;5058079;28;20521;-41
2021/01/04 01:58:05;;;;;;;27.93;20.03;;;8.20;58.30;;;;;;5038825;28;20435;-41
2021/01/04 02:00:40;;;;;;;24.77;17.70;;;8.20;58.50;;;;;;5051032;28;20940;-41
2021/01/04 02:03:06;;;;;;;28.77;19.50;;;8.20;58.50;;;;;;5061051;28;20434;-41
2021/01/04 02:05:59;;;;;;;25.20;19.20;;;8.30;58.60;;;;;;5060684;28;20957;-42
2021/01/04 02:08:31;;;;;;;25.13;18.70;;;8.30;58.40;;;;;;5052862;28;20281;-41
2021/01/04 02:11:02;;;;;;;26.50;19.50;;;8.30;58.40;;;;;;5061417;28;20510;-42
2021/01/04 02:13:35;;;;;;;28.50;18.57;;;8.30;58.40;;;;;;5053004;28;20482;-42
2021/01/04 02:16:09;;;;;;;30.17;20.63;;;8.30;58.30;;;;;;5059953;28;20439;-42
2021/01/04 02:19:02;;;;;;;26.17;19.80;;;8.40;58.20;;;;;;5055310;28;20446;-42
2021/01/04 02:21:58;;;;;;;30.07;19.40;;;8.40;58.10;;;;;;5047255;28;20480;-41
2021/01/04 02:24:26;;;;;;;26.23;19.07;;;8.30;58.20;;;;;;5053557;28;20537;-42
2021/01/04 02:27:17;;;;;;;30.97;20.10;;;8.40;58.40;;;;;;5050393;28;20429;-42
2021/01/04 02:29:42;;;;;;;27.90;19.83;;;8.30;58.20;;;;;;5055985;28;20846;-41
2021/01/04 02:32:10;;;;;;;27.07;19.00;;;8.30;58.10;;;;;;5056331;28;20458;-41
2021/01/04 02:34:37;;;;;;;25.90;18.53;;;8.40;58.10;;;;;;5055772;28;21036;-42
2021/01/04 02:37:04;;;;;;;25.80;18.60;;;8.40;58.10;;;;;;5052198;28;20902;-42
2021/01/04 02:39:33;;;;;;;30.60;20.67;;;8.40;58.20;;;;;;5059466;28;20423;-42
2021/01/04 02:42:09;;;;;;;29.77;19.77;;;8.40;58.70;;;;;;5047536;28;20477;-42
2021/01/04 02:44:36;;;;;;;27.33;19.90;;;8.30;58.10;;;;;;5064653;28;20438;-42
2021/01/04 02:47:37;;;;;;;32.30;20.50;;;8.30;58.10;;;;;;5057095;28;20508;-41
2021/01/04 02:50:40;;;;;;;25.93;18.60;;;8.30;58.10;;;;;;5053762;28;20482;-41
2021/01/04 02:53:35;;;;;;;28.77;19.70;;;8.30;58.20;;;;;;5049493;28;20930;-42
2021/01/04 02:56:26;;;;;;;26.80;19.77;;;8.30;58.20;;;;;;5054916;28;20438;-42
2021/01/04 02:59:15;;;;;;;26.90;18.67;;;8.30;58.20;;;;;;5060625;28;20801;-41
2021/01/04 03:02:03;;;;;;;25.17;18.23;;;8.30;58.50;;;;;;5056976;28;20440;-42
2021/01/04 03:04:32;;;;;;;26.10;18.20;;;8.20;58.70;;;;;;5064601;28;20438;-41
2021/01/04 03:07:00;;;;;;;30.60;19.17;;;8.20;58.60;;;;;;5056427;28;20430;-41
2021/01/04 03:09:31;;;;;;;28.53;20.33;;;8.30;58.60;;;;;;5053364;28;20819;-42
2021/01/04 03:11:58;;;;;;;26.50;18.70;;;8.30;58.40;;;;;;5056830;28;20476;-41
2021/01/04 03:14:35;;;;;;;28.20;19.00;;;8.30;58.30;;;;;;5057191;28;20510;-42
2021/01/04 03:17:13;;;;;;;25.77;18.13;;;8.30;58.20;;;;;;5062808;28;20461;-42
2021/01/04 03:19:41;;;;;;;28.20;20.43;;;8.30;58.20;;;;;;5057205;28;20435;-42
2021/01/04 03:22:10;;;;;;;27.83;19.27;;;8.30;58.20;;;;;;5070789;28;20430;-41
2021/01/04 03:24:36;;;;;;;34.40;20.00;;;8.30;58.30;;;;;;5062241;28;20822;-41
2021/01/04 03:27:13;;;;;;;31.03;20.77;;;8.20;58.30;;;;;;5059626;28;20534;-41
2021/01/04 03:29:38;;;;;;;27.60;20.17;;;8.30;58.40;;;;;;5055118;28;20196;-41
2021/01/04 03:32:04;;;;;;;28.53;19.97;;;8.30;58.30;;;;;;5054094;28;20435;-41
2021/01/04 03:34:30;;;;;;;30.80;20.97;;;8.30;58.20;;;;;;5054457;28;20690;-41
2021/01/04 03:36:55;;;;;;;31.73;20.63;;;8.30;58.70;;;;;;5054871;28;20799;-42
2021/01/04 03:39:21;;;;;;;29.27;19.80;;;8.30;58.00;;;;;;5066040;28;20829;-41
2021/01/04 03:41:47;;;;;;;30.23;20.00;;;8.30;58.10;;;;;;5059207;28;20224;-41
2021/01/04 03:44:13;;;;;;;29.63;21.03;;;8.30;58.00;;;;;;5056037;28;20184;-41
2021/01/04 03:46:45;;;;;;;28.70;20.60;;;8.20;58.10;;;;;;5062033;28;20925;-41
2021/01/04 03:49:11;;;;;;;33.97;20.93;;;8.20;58.20;;;;;;5050426;28;20265;-41
2021/01/04 03:51:36;;;;;;;28.17;19.73;;;8.20;58.20;;;;;;5053462;28;20537;-41
2021/01/04 03:54:02;;;;;;;27.93;20.40;;;8.20;58.30;;;;;;5064803;28;20226;-42
2021/01/04 03:56:28;;;;;;;28.40;20.50;;;8.20;58.40;;;;;;5068912;28;20188;-41
2021/01/04 03:58:53;;;;;;;28.03;19.20;;;8.20;58.50;;;;;;5059839;28;20549;-41
2021/01/04 04:01:19;;;;;;;27.00;20.30;;;8.20;58.40;;;;;;5059836;28;20196;-41
2021/01/04 04:03:44;;;;;;;29.10;19.90;;;8.20;58.30;;;;;;5069081;28;20199;-41
2021/01/04 04:06:11;;;;;;;30.57;20.57;;;8.20;58.50;;;;;;5055304;28;20196;-41
2021/01/04 04:08:43;;;;;;;31.83;21.53;;;8.20;58.60;;;;;;5051305;28;20353;-41
2021/01/04 04:11:13;;;;;;;32.03;19.70;;;8.20;58.30;;;;;;5052231;28;20427;-41
2021/01/04 04:13:39;;;;;;;33.90;21.97;;;8.20;58.20;;;;;;5060365;28;20889;-41
2021/01/04 04:16:04;;;;;;;28.00;18.43;;;8.10;58.00;;;;;;5052832;28;20466;-41
2021/01/04 04:18:30;;;;;;;30.37;19.77;;;8.10;58.20;;;;;;5056155;28;20203;-41
2021/01/04 04:20:56;;;;;;;29.10;19.93;;;8.10;58.00;;;;;;5056543;28;21194;-42
2021/01/04 04:23:21;;;;;;;26.83;18.63;;;8.10;58.30;;;;;;5054843;28;20203;-42
2021/01/04 04:25:47;;;;;;;25.90;19.83;;;8.10;58.40;;;;;;5064604;28;20894;-41
2021/01/04 04:28:12;;;;;;;30.10;20.47;;;8.20;58.30;;;;;;5053454;28;20196;-41
2021/01/04 04:30:38;;;;;;;29.77;19.63;;;8.20;58.20;;;;;;5052887;28;20196;-41
2021/01/04 04:33:03;;;;;;;28.50;19.30;;;8.20;58.30;;;;;;5055859;28;20267;-41
2021/01/04 04:35:29;;;;;;;28.57;18.30;;;8.20;58.20;;;;;;5066265;28;20193;-41
2021/01/04 04:37:55;;;;;;;29.17;19.27;;;8.20;58.10;;;;;;5056141;28;20563;-41
2021/01/04 04:40:31;;;;;;;29.60;19.90;;;8.30;58.20;;;;;;5052324;28;20232;-42
2021/01/04 04:43:10;;;;;;;27.07;19.47;;;8.30;58.10;;;;;;5050428;28;20431;-41
2021/01/04 04:45:37;;;;;;;30.77;20.23;;;8.30;58.10;;;;;;5053803;28;20458;-42
2021/01/04 04:48:33;;;;;;;29.00;19.83;;;8.30;58.00;;;;;;5051644;28;20431;-41
2021/01/04 04:51:06;;;;;;;28.60;18.60;;;8.40;58.10;;;;;;5051736;28;20842;-41
2021/01/04 04:53:50;;;;;;;28.10;20.30;;;8.40;58.00;;;;;;5055408;28;20992;-41
2021/01/04 04:56:50;;;;;;;28.60;18.67;;;8.30;57.80;;;;;;5049214;28;20447;-41
2021/01/04 04:59:45;;;;;;;25.80;18.20;;;8.30;57.90;;;;;;5038944;28;20988;-41
2021/01/04 05:02:24;;;;;;;29.93;19.83;;;8.30;58.10;;;;;;5024636;28;20442;-41
2021/01/04 05:05:09;;;;;;;30.90;20.43;;;8.30;58.00;;;;;;5059584;28;20439;-41
2021/01/04 05:08:13;;;;;;;30.83;20.93;;;8.20;58.00;;;;;;5059190;28;20470;-41
2021/01/04 05:10:42;;;;;;;26.93;18.83;;;8.20;58.10;;;;;;4997241;28;20474;-41
2021/01/04 05:13:26;;;;;;;29.87;19.83;;;8.20;58.30;;;;;;5060639;28;20434;-41
2021/01/04 05:16:12;;;;;;;28.60;19.93;;;8.20;58.50;;;;;;5048864;28;20443;-41
2021/01/04 05:18:57;;;;;;;28.70;19.50;;;8.10;58.50;;;;;;5051767;28;20450;-41
2021/01/04 05:21:42;;;;;;;31.50;20.00;;;8.10;58.60;;;;;;5065953;28;20450;-41
2021/01/04 05:24:44;;;;;;;29.07;19.50;;;8.10;58.40;;;;;;5053222;28;20767;-42
2021/01/04 05:27:40;;;;;;;30.03;20.10;;;8.10;58.40;;;;;;5044295;28;20462;-41
2021/01/04 05:30:36;;;;;;;28.97;20.63;;;8.10;58.40;;;;;;5052328;28;20534;-41
2021/01/04 05:33:32;;;;;;;33.23;19.73;;;8.20;58.40;;;;;;5055400;28;20788;-41
2021/01/04 05:36:22;;;;;;;28.30;19.10;;;8.20;58.40;;;;;;5057062;28;20436;-41
2021/01/04 05:39:08;;;;;;;29.37;21.10;;;8.10;58.50;;;;;;5058508;28;20442;-41
2021/01/04 05:42:24;;;;;;;29.73;19.87;;;8.10;58.60;;;;;;5050010;28;20470;-41
2021/01/04 05:45:02;;;;;;;30.43;21.30;;;8.10;58.30;;;;;;5047217;28;20518;-41
2021/01/04 05:47:55;;;;;;;29.90;20.57;;;8.10;58.60;;;;;;5057895;28;20918;-42
2021/01/04 05:50:26;;;;;;;26.73;18.80;;;8.10;58.50;;;;;;5052878;28;20853;-41
2021/01/04 05:52:53;;;;;;;29.87;18.93;;;8.10;58.50;;;;;;5050612;28;20800;-41
2021/01/04 05:55:20;;;;;;;27.20;18.90;;;8.10;58.60;;;;;;5051173;28;20490;-41
2021/01/04 05:57:52;;;;;;;30.10;19.23;;;8.10;58.60;;;;;;5053023;28;20822;-41
2021/01/04 06:00:38;;;;;;;27.57;17.93;;;7.90;58.60;;;;;;5049497;28;20465;-42
2021/01/04 06:03:19;;;;;;;30.10;20.93;;;8.00;58.90;;;;;;5045307;28;20526;-41
2021/01/04 06:05:45;;;;;;;24.70;17.70;;;8.00;58.80;;;;;;5049808;28;20765;-41
2021/01/04 06:08:26;;;;;;;27.90;18.87;;;8.10;58.70;;;;;;5051416;28;20526;-42
2021/01/04 06:11:05;;;;;;;28.20;19.20;;;8.10;58.60;;;;;;5058341;28;20449;-41
2021/01/04 06:13:36;;;;;;;23.33;16.97;;;8.10;58.50;;;;;;5062381;28;20515;-42
2021/01/04 06:16:31;;;;;;;26.60;17.80;;;8.30;59.70;;;;;;5055812;28;20470;-42
2021/01/04 06:19:08;;;;;;;25.50;18.43;;;8.60;62.10;;;;;;5035572;28;20965;-42
2021/01/04 06:21:47;;;;;;;27.63;19.20;;;8.80;59.70;;;;;;5051556;28;20924;-41
2021/01/04 06:24:24;;;;;;;26.23;18.60;;;9.00;58.60;;;;;;5050206;28;20431;-41
2021/01/04 06:26:56;;;;;;;30.60;20.23;;;9.10;57.90;;;;;;5052788;28;20823;-41
2021/01/04 06:29:32;;;;;;;25.73;18.20;;;9.20;57.70;;;;;;5049088;28;20439;-41
2021/01/04 06:31:59;;;;;;;27.87;18.50;;;9.30;56.90;;;;;;5048384;28;20458;-41
2021/01/04 06:34:31;;;;;;;31.80;19.07;;;9.40;57.00;;;;;;5050720;28;20497;-42
2021/01/04 06:37:10;;;;;;;28.47;20.60;;;9.50;56.70;;;;;;5066428;28;20426;-41
2021/01/04 06:39:36;;;;;;;24.63;18.20;;;9.60;56.50;;;;;;5050642;28;20492;-41
2021/01/04 06:42:11;;;;;;;25.67;18.83;;;9.70;55.50;;;;;;5048299;28;20568;-42
2021/01/04 06:44:36;;;;;;;29.03;18.93;;;9.70;55.20;;;;;;5049648;28;20445;-42
2021/01/04 06:47:41;;;;;;;29.07;19.63;;;9.60;55.30;;;;;;5049275;28;20423;-42
2021/01/04 06:50:12;;;;;;;27.67;18.33;;;9.60;55.20;;;;;;5029642;28;20560;-42
2021/01/04 06:52:46;;;;;;;28.17;19.00;;;9.60;55.20;;;;;;5048084;28;20440;-42
2021/01/04 06:55:39;;;;;;;24.70;16.60;;;9.70;55.20;;;;;;5048935;28;20474;-42
2021/01/04 06:58:31;;;;;;;23.70;17.33;;;9.70;55.80;;;;;;5045212;28;20435;-41
2021/01/04 07:01:16;;;;;;;21.93;16.47;;;9.90;56.30;;;;;;5046862;28;20918;-42
2021/01/04 07:04:23;;;;;;;21.50;16.30;;;10.10;54.90;;;;;;5051696;28;20632;-42
2021/01/04 07:07:19;;;;;;;25.90;19.00;;;10.30;54.30;;;;;;5024230;28;20454;-42
2021/01/04 07:10:07;;;;;;;25.00;18.20;;;10.30;53.20;;;;;;5052007;28;20496;-42
2021/01/04 07:12:58;;;;;;;24.80;17.57;;;10.30;52.90;;;;;;5057731;28;20516;-42
2021/01/04 07:15:28;;;;;;;23.80;17.00;;;10.20;52.80;;;;;;5055036;28;20485;-42
2021/01/04 07:18:19;;;;;;;25.20;17.10;;;10.10;52.70;;;;;;5050943;28;20533;-42
2021/01/04 07:21:03;;;;;;;25.43;17.83;;;10.10;53.00;;;;;;5060674;28;20556;-42
2021/01/04 07:24:06;;;;;;;25.50;17.70;;;10.20;53.30;;;;;;5052895;28;20452;-42
2021/01/04 07:26:41;;;;;;;22.10;15.20;;;10.20;53.30;;;;;;5035251;28;20486;-42
2021/01/04 07:29:22;;;;;;;23.87;16.77;;;10.30;53.10;;;;;;5046280;28;20426;-42
2021/01/04 07:31:59;;;;;;;25.53;17.90;;;10.40;52.90;;;;;;5055655;28;20488;-42
2021/01/04 07:34:35;;;;;;;25.00;18.30;;;10.40;52.80;;;;;;5051459;28;20621;-42
2021/01/04 07:37:30;;;;;;;24.50;16.90;;;10.40;52.40;;;;;;5061847;28;20438;-42
2021/01/04 07:40:10;;;;;;;26.80;18.03;;;10.40;52.10;;;;;;5050790;28;20458;-42
2021/01/04 07:43:03;;;;;;;24.00;18.17;;;10.30;52.60;;;;;;5050178;28;20481;-42
2021/01/04 07:46:09;;;;;;;24.07;18.00;;;10.30;52.50;;;;;;5048853;28;20431;-42
2021/01/04 07:48:40;;;;;;;24.87;17.90;;;10.30;52.30;;;;;;5052045;28;20431;-42
2021/01/04 07:51:14;;;;;;;27.33;18.83;;;10.20;52.40;;;;;;5052271;28;20447;-41
2021/01/04 07:54:17;;;;;;;24.53;18.33;;;10.20;52.50;;;;;;5052364;28;20482;-42
2021/01/04 07:57:24;;;;;;;25.47;19.17;;;10.10;52.80;;;;;;5062675;28;20521;-42
2021/01/04 08:00:04;;;;;;;25.23;17.80;;;10.10;52.70;;;;;;5056627;28;20481;-41
2021/01/04 08:03:07;;;;;;;25.60;18.33;;;10.20;52.70;;;;;;5057430;28;20485;-42
2021/01/04 08:06:03;;;;;;;23.40;17.40;;;10.20;52.70;;;;;;5057235;28;20436;-42
2021/01/04 08:08:47;;;;;;;25.50;17.67;;;10.30;52.60;;;;;;5068907;28;20429;-41
2021/01/04 08:11:28;;;;;;;26.37;19.30;;;10.30;52.30;;;;;;5055588;28;20519;-42
2021/01/04 08:14:18;;;;;;;30.23;19.87;;;10.30;52.40;;;;;;5042153;28;20532;-42
2021/01/04 08:16:51;;;;;;;25.23;17.53;;;10.20;52.30;;;;;;5058676;28;20554;-41
2021/01/04 08:19:18;;;;;;;26.50;18.57;;;10.20;52.70;;;;;;5056619;28;20467;-42
2021/01/04 08:22:16;;;;;;;23.53;17.30;;;10.20;52.50;;;;;;5070391;28;20815;-42
2021/01/04 08:24:44;;;;;;;22.93;17.80;;;10.20;52.70;;;;;;5053202;28;20431;-42
2021/01/04 08:27:40;;;;;;;21.67;15.70;;;10.20;52.70;;;;;;5051665;28;20431;-41
2021/01/04 08:30:42;;;;;;;24.17;17.57;;;10.30;52.60;;;;;;5052425;28;20823;-42
2021/01/04 08:33:21;;;;;;;25.53;18.47;;;10.20;52.40;;;;;;5008873;28;20681;-42
2021/01/04 08:35:47;;;;;;;24.00;18.17;;;10.30;52.40;;;;;;5046594;28;20450;-42
2021/01/04 08:38:28;;;;;;;28.47;19.30;;;10.30;52.30;;;;;;5050225;28;20506;-42
2021/01/04 08:41:14;;;;;;;24.83;18.40;;;10.30;52.40;;;;;;5051071;28;20228;-42
2021/01/04 08:43:43;;;;;;;23.47;17.67;;;10.30;52.30;;;;;;5050491;28;20458;-41
2021/01/04 08:46:33;;;;;;;28.00;18.57;;;10.20;52.40;;;;;;5051189;28;20824;-42
2021/01/04 08:49:15;;;;;;;27.07;19.27;;;10.10;52.80;;;;;;5040579;28;20451;-41
2021/01/04 08:51:49;;;;;;;25.70;17.80;;;10.20;52.80;;;;;;5050337;28;20792;-42
2021/01/04 08:54:27;;;;;;;25.60;19.30;;;10.20;52.50;;;;;;5050894;28;20479;-42
2021/01/04 08:57:06;;;;;;;24.70;16.90;;;10.30;52.50;;;;;;5050872;28;20443;-42
2021/01/04 08:59:33;;;;;;;27.33;20.50;;;10.30;52.80;;;;;;5050997;28;20431;-42
2021/01/04 09:02:13;;;;;;;24.77;18.80;;;10.30;52.40;;;;;;5049868;28;20463;-42
2021/01/04 09:04:40;;;;;;;27.80;19.17;;;10.40;52.30;;;;;;5045525;28;20790;-42
2021/01/04 09:07:08;;;;;;;25.43;17.30;;;10.40;52.20;;;;;;5048358;28;20775;-42
2021/01/04 09:09:45;;;;;;;24.10;16.40;;;10.40;52.20;;;;;;5063135;28;20453;-42
2021/01/04 09:12:23;;;;;;;25.97;18.43;;;10.30;52.10;;;;;;5047810;28;20442;-41
2021/01/04 09:14:54;;;;;;;25.07;17.40;;;10.30;52.20;;;;;;5038469;28;20506;-41
2021/01/04 09:17:29;;;;;;;25.40;17.70;;;10.30;52.20;;;;;;5043552;28;20474;-41
2021/01/04 09:20:43;;;;;;;24.90;18.93;;;10.30;52.40;;;;;;5048705;28;20435;-41
2021/01/04 09:23:24;;;;;;;24.33;16.40;;;10.20;52.20;;;;;;5021655;28;20573;-42
2021/01/04 09:26:01;;;;;;;24.97;18.60;;;10.20;52.30;;;;;;5049894;28;20835;-41
2021/01/04 09:28:36;;;;;;;22.00;17.57;;;10.10;52.30;;;;;;5045041;28;20807;-42
2021/01/04 09:31:02;;;;;;;27.20;16.07;;;10.20;52.50;;;;;;5046687;28;20435;-41
2021/01/04 09:33:28;;;;;;;25.17;17.10;;;10.00;52.70;;;;;;5057093;28;20473;-41
2021/01/04 09:36:14;;;;;;;27.03;18.13;;;10.00;52.70;;;;;;5048201;28;20185;-41
2021/01/04 09:38:39;;;;;;;24.87;17.90;;;9.80;53.60;;;;;;5049781;28;20426;-42
2021/01/04 09:41:08;;;;;;;24.90;18.30;;;9.90;53.90;;;;;;5043470;28;20459;-41
2021/01/04 09:43:36;;;;;;;38.07;18.03;;;10.00;52.80;;;;;;5046875;28;20197;-41
2021/01/04 09:46:23;;;;;;;22.30;16.47;;;10.00;52.70;;;;;;5050334;28;20446;-41
2021/01/04 09:48:57;;;;;;;21.93;15.50;;;10.10;52.80;;;;;;5049043;28;20903;-41
2021/01/04 09:51:34;;;;;;;23.50;17.27;;;10.10;52.70;;;;;;5049794;28;20430;-41
2021/01/04 09:54:05;;;;;;;25.50;18.03;;;10.10;52.60;;;;;;5047810;28;20509;-41
2021/01/04 09:56:34;;;;;;;26.50;18.40;;;10.00;52.80;;;;;;5049319;28;20423;-42
2021/01/04 09:59:18;;;;;;;24.90;18.10;;;10.10;52.90;;;;;;5047805;28;20427;-42
2021/01/04 10:01:52;;;;;;;24.07;17.40;;;10.10;52.70;;;;;;5042796;28;20424;-42
2021/01/04 10:04:33;;;;;;;26.17;17.73;;;10.20;52.70;;;;;;5045124;28;20427;-42
2021/01/04 10:07:04;;;;;;;25.10;17.70;;;10.10;52.90;;;;;;5049205;28;20478;-41
2021/01/04 10:09:33;;;;;;;29.13;18.30;;;10.10;52.70;;;;;;5048811;28;20492;-41
2021/01/04 10:12:04;;;;;;;28.93;18.50;;;10.10;52.70;;;;;;5048580;28;20427;-42
2021/01/04 10:14:30;;;;;;;29.27;21.13;;;10.10;52.70;;;;;;5048529;28;20501;-42
2021/01/04 10:16:57;;;;;;;30.17;20.60;;;10.10;52.60;;;;;;5048991;28;20484;-41
2021/01/04 10:19:51;;;;;;;28.67;18.50;;;10.10;52.80;;;;;;5049473;28;20640;-42
2021/01/04 10:22:24;;;;;;;26.80;18.13;;;10.20;52.80;;;;;;5042061;28;20447;-41
2021/01/04 10:25:18;;;;;;;24.63;17.73;;;10.20;52.70;;;;;;5045974;28;21260;-42
2021/01/04 10:27:50;;;;;;;25.00;17.10;;;10.20;53.00;;;;;;5045153;28;20443;-42
2021/01/04 10:30:16;;;;;;;25.50;17.23;;;10.20;53.10;;;;;;5043464;28;20518;-41
2021/01/04 10:32:42;;;;;;;24.50;16.67;;;10.30;52.90;;;;;;5048094;28;20852;-41
2021/01/04 10:35:22;;;;;;;25.73;18.13;;;10.40;52.70;;;;;;5048404;28;20581;-42
2021/01/04 10:37:53;;;;;;;24.87;16.53;;;10.30;52.20;;;;;;5043997;28;20250;-42
2021/01/04 10:40:22;;;;;;;22.43;16.07;;;10.20;52.40;;;;;;5049014;28;20478;-41
2021/01/04 10:42:58;;;;;;;26.47;17.50;;;10.10;52.80;;;;;;5046981;28;20432;-41
2021/01/04 10:45:33;;;;;;;26.17;17.80;;;10.30;52.80;;;;;;5049275;28;20909;-41
2021/01/04 10:48:07;;;;;;;23.73;17.07;;;10.20;52.10;;;;;;5047406;28;20925;-41
2021/01/04 10:50:44;;;;;;;24.93;16.50;;;9.90;53.60;;;;;;5041956;28;20449;-41
2021/01/04 10:53:30;;;;;;;25.27;17.23;;;9.60;53.30;;;;;;5048397;28;20434;-43
2021/01/04 10:56:05;;;;;;;21.57;14.90;;;9.60;54.40;;;;;;5049975;28;20430;-42
2021/01/04 10:58:39;;;;;;;26.40;18.00;;;9.60;54.60;;;;;;5048144;28;20460;-41
2021/01/04 11:01:15;;;;;;;25.63;16.70;;;9.80;54.60;;;;;;5052232;28;20447;-41
2021/01/04 11:03:55;;;;;;;23.97;16.60;;;9.70;54.80;;;;;;5048718;28;20442;-41
2021/01/04 11:06:30;;;;;;;25.50;17.50;;;9.80;54.40;;;;;;5044464;28;20443;-41
2021/01/04 11:08:57;;;;;;;27.00;17.27;;;9.90;54.20;;;;;;5052044;28;20953;-41
2021/01/04 11:11:31;;;;;;;24.87;18.10;;;10.00;53.10;;;;;;5052193;28;20426;-41
2021/01/04 11:14:12;;;;;;;23.83;16.77;;;9.90;53.90;;;;;;5051825;28;20478;-41
2021/01/04 11:16:52;;;;;;;20.87;16.37;;;9.90;53.50;;;;;;5053042;28;20439;-41
2021/01/04 11:19:28;;;;;;;23.60;17.23;;;9.90;53.60;;;;;;5052993;28;20438;-41
2021/01/04 11:21:54;;;;;;;27.43;20.40;;;9.90;53.20;;;;;;5050204;28;20441;-41
2021/01/04 11:24:19;;;;;;;28.80;19.97;;;9.90;53.30;;;;;;5051658;28;20906;-41
2021/01/04 11:26:46;;;;;;;25.57;18.37;;;9.90;53.50;;;;;;5051984;28;20196;-41
2021/01/04 11:29:12;;;;;;;27.20;19.53;;;9.80;54.10;;;;;;5051760;28;20188;-41
2021/01/04 11:31:37;;;;;;;21.40;16.00;;;9.90;53.80;;;;;;5050090;28;20476;-41
2021/01/04 11:34:04;;;;;;;23.10;16.10;;;9.90;53.50;;;;;;5055468;28;20510;-41
2021/01/04 11:36:30;;;;;;;24.77;17.37;;;9.90;53.00;;;;;;5051563;28;20200;-41
2021/01/04 11:38:56;;;;;;;22.60;16.33;;;9.90;53.20;;;;;;5044560;28;20510;-41
2021/01/04 11:41:22;;;;;;;21.80;15.90;;;10.00;52.60;;;;;;5052817;28;20236;-41
2021/01/04 11:43:50;;;;;;;24.57;16.80;;;9.90;52.80;;;;;;5036700;28;20523;-41
2021/01/04 11:46:17;;;;;;;22.73;15.80;;;10.00;52.00;;;;;;5051222;28;20848;-42
2021/01/04 11:48:43;;;;;;;23.80;17.50;;;9.80;52.90;;;;;;5049413;28;20496;-41
2021/01/04 11:51:09;;;;;;;26.20;17.30;;;9.90;53.00;;;;;;5051936;28;20779;-41
2021/01/04 11:53:35;;;;;;;22.53;15.83;;;9.80;53.50;;;;;;5046817;28;20468;-41
2021/01/04 11:56:01;;;;;;;21.80;16.50;;;9.60;52.80;;;;;;5050105;28;20423;-41
2021/01/04 11:58:27;;;;;;;24.10;16.20;;;9.40;53.40;;;;;;5052000;28;20184;-41
2021/01/04 12:00:53;;;;;;;22.50;15.80;;;9.30;53.50;;;;;;5052562;28;20461;-41
2021/01/04 12:03:19;;;;;;;22.47;15.20;;;9.10;53.60;;;;;;5051100;28;20428;-41
2021/01/04 12:05:45;;;;;;;22.00;15.37;;;9.00;53.70;;;;;;5068070;28;20755;-41
2021/01/04 12:08:11;;;;;;;24.27;16.27;;;9.10;53.70;;;;;;5051637;28;20238;-41
2021/01/04 12:10:36;;;;;;;19.50;14.43;;;8.90;53.00;;;;;;5051832;28;20193;-41
2021/01/04 12:13:02;;;;;;;18.77;14.57;;;8.80;52.70;;;;;;5044612;28;20220;-41
2021/01/04 12:15:28;;;;;;;19.80;13.70;;;8.60;52.60;;;;;;5050765;28;20220;-41
2021/01/04 12:17:54;;;;;;;21.73;14.97;;;8.70;52.80;;;;;;5051530;28;20427;-41
2021/01/04 12:20:19;;;;;;;19.20;14.53;;;8.80;52.70;;;;;;5052305;28;20220;-41
2021/01/04 12:22:46;;;;;;;19.50;14.70;;;8.80;52.40;;;;;;5051580;28;20551;-41
2021/01/04 12:25:12;;;;;;;21.47;15.67;;;8.80;52.30;;;;;;5049824;28;20598;-41
2021/01/04 12:27:38;;;;;;;17.23;13.17;;;8.70;52.40;;;;;;5051587;28;20492;-41
2021/01/04 12:30:05;;;;;;;20.00;14.73;;;8.70;52.50;;;;;;5051307;28;20443;-41
2021/01/04 12:32:30;;;;;;;19.50;13.00;;;8.70;52.40;;;;;;5051081;28;20207;-41
2021/01/04 12:34:56;;;;;;;23.03;14.87;;;8.80;52.60;;;;;;5051106;28;20498;-41
2021/01/04 12:37:23;;;;;;;19.10;14.00;;;8.90;52.50;;;;;;5050471;28;20631;-41
2021/01/04 12:39:49;;;;;;;18.63;14.13;;;8.90;52.50;;;;;;5051600;28;20435;-41
2021/01/04 12:42:15;;;;;;;19.33;14.17;;;8.90;52.40;;;;;;5049425;28;20459;-41
2021/01/04 12:44:41;;;;;;;18.63;13.37;;;8.80;52.60;;;;;;5050344;28;20522;-41
2021/01/04 12:47:10;;;;;;;17.93;13.03;;;8.90;52.30;;;;;;5051305;28;21076;-41
2021/01/04 12:49:35;;;;;;;17.60;12.10;;;8.80;51.50;;;;;;5041741;28;20189;-41
2021/01/04 12:52:01;;;;;;;16.70;11.50;;;8.80;51.30;;;;;;5048888;28;20420;-41
2021/01/04 12:54:30;;;;;;;16.70;11.40;;;8.90;51.20;;;;;;5050507;28;20675;-40
2021/01/04 12:56:57;;;;;;;17.07;12.00;;;8.90;52.60;;;;;;5052324;28;20614;-42
2021/01/04 12:59:25;;;;;;;15.87;11.63;;;8.90;52.20;;;;;;5053295;28;20435;-41
2021/01/04 13:01:51;;;;;;;15.80;11.87;;;9.00;51.10;;;;;;5048358;28;21007;-41
2021/01/04 13:04:19;;;;;;;16.50;11.47;;;9.20;50.60;;;;;;5045789;28;20844;-40
2021/01/04 13:06:44;;;;;;;15.43;11.30;;;9.30;50.60;;;;;;5049794;28;20434;-42
2021/01/04 13:09:10;;;;;;;16.43;12.10;;;9.30;50.00;;;;;;5049335;28;20435;-41
2021/01/04 13:11:36;;;;;;;15.30;11.87;;;9.30;50.10;;;;;;5051991;28;20192;-41
2021/01/04 13:14:01;;;;;;;16.43;11.90;;;9.30;49.90;;;;;;5046528;28;20298;-42
2021/01/04 13:16:34;;;;;;;19.73;12.60;;;9.30;50.20;;;;;;5045093;28;20193;-41
2021/01/04 13:19:00;;;;;;;15.70;11.53;;;9.40;50.20;;;;;;5059598;28;20339;-42
2021/01/04 13:21:25;;;;;;;16.80;12.07;;;9.40;50.40;;;;;;5051138;28;20435;-42